Date,TemperatureHighF,TemperatureAvgF,TemperatureLowF,DewpointHighF,DewpointAvgF,DewpointLowF,HumidityHigh,HumidityAvg,HumidityLow,PressureMaxIn,PressureMinIn,WindSpeedMaxMPH,WindSpeedAvgMPH,GustSpeedMaxMPH,PrecipitationSumIn
2012-1-30,49.8,36.7,21.2,24.6,16.6,7.6,79,47,21,30.40,30.17,11,2,16,0.00
2012-1-31,68.6,56.9,43.1,26.6,23.3,20.6,46,28,17,30.21,30.02,15,5,20,0.00
2012-2-1,58.9,53.9,45.5,46.8,41.3,25.7,92,64,32,30.05,30.00,13,2,20,0.01
2012-2-2,55.9,45.5,33.7,50.8,35.7,25.2,99,72,38,30.38,29.97,17,3,29,0.05
2012-2-3,54.1,36.5,25.0,30.0,26.1,22.2,92,69,34,30.56,30.35,5,0,7,0.00
2012-2-4,39.1,32.2,25.3,33.6,29.4,23.3,99,90,69,30.34,30.11,3,0,6,0.01
2012-2-5,40.9,32.3,24.6,34.5,30.6,23.4,99,94,65,30.28,30.09,7,1,7,0.15
2012-2-6,52.1,33.8,20.3,33.8,26.1,18.9,97,77,36,30.30,30.08,12,0,12,0.01
2012-2-7,55.5,39.7,26.8,31.4,26.3,23.3,89,62,30,30.26,30.11,12,1,12,0.00
2012-2-8,35.8,31.7,27.2,33.7,27.9,22.8,96,86,65,30.27,30.14,9,1,14,0.06
2012-2-9,45.0,33.9,26.3,23.5,19.3,13.1,74,57,29,30.30,30.20,11,2,14,0.00
2012-2-10,40.8,30.4,20.4,31.5,24.5,17.4,98,80,46,30.24,29.90,6,0,7,0.03
2012-2-11,38.2,27.0,17.0,35.3,17.8,2.5,99,71,46,30.15,29.77,31,6,31,0.02
2012-2-12,26.6,21.5,16.0,11.1,6.0,1.1,58,51,44,30.21,30.11,29,8,29,0.00
2012-2-13,47.5,32.2,22.2,20.9,13.8,9.0,72,49,22,30.28,30.08,20,2,22,0.00
2012-2-14,49.7,37.6,28.8,30.6,24.1,19.5,75,60,34,30.09,29.90,7,1,8,0.00
2012-2-15,52.9,41.7,36.3,32.4,29.5,27.1,84,63,38,30.29,30.05,15,1,15,0.00
2012-2-16,44.4,38.8,35.3,43.9,37.0,30.0,99,93,76,30.24,29.98,11,0,11,0.22
2012-2-17,49.4,40.3,28.5,41.6,28.8,23.4,99,66,40,30.16,30.02,20,3,20,0.00
2012-2-18,58.2,39.5,24.0,29.6,24.2,19.7,96,60,24,30.14,29.89,24,3,24,0.00
2012-2-19,42.6,35.5,29.6,23.6,21.7,19.6,71,58,43,30.14,29.91,13,2,13,0.00
2012-2-20,49.1,34.4,24.7,23.2,18.8,12.8,79,56,24,30.34,30.03,11,1,11,0.00
2012-2-21,56.6,38.2,19.8,31.6,24.6,16.8,90,62,32,30.32,29.82,25,3,26,0.00
2012-2-22,61.6,51.1,39.9,38.9,31.1,20.3,73,49,23,29.84,29.47,22,4,24,0.00
2012-2-23,60.0,50.8,44.7,39.2,34.8,28.5,76,56,31,29.62,29.45,18,3,18,0.01
2012-2-24,56.8,44.1,32.7,48.2,36.2,20.9,99,76,33,29.78,29.36,33,5,34,0.26
2012-2-25,36.8,32.3,26.6,29.1,17.8,12.3,92,56,38,30.37,29.76,29,8,32,0.00
2012-2-26,50.7,34.1,22.0,22.5,16.4,11.9,80,51,23,30.52,30.35,15,1,17,0.00
2012-2-27,66.1,45.7,22.9,31.5,24.1,16.7,90,50,24,30.37,30.15,25,4,29,0.00
2012-2-28,58.2,41.7,29.4,26.3,21.9,11.7,78,48,20,30.49,30.23,12,2,13,0.00
2012-2-29,51.5,38.8,31.1,49.4,36.7,25.4,100,92,76,30.24,29.66,19,2,20,1.18
2012-3-1,62.1,52.2,36.6,46.4,34.3,29.1,87,52,31,29.98,29.60,32,6,32,0.01
2012-3-2,49.7,40.7,27.7,47.0,36.5,25.7,99,86,64,30.02,29.58,15,2,17,0.52
2012-3-3,54.9,47.6,40.5,47.3,28.5,10.0,99,53,18,29.77,29.50,29,5,30,0.01
2012-3-4,41.2,34.3,28.8,26.5,20.4,14.5,72,57,38,29.94,29.73,22,4,22,0.00
2012-3-5,38.5,30.1,24.1,29.3,20.7,14.2,91,69,49,30.51,29.92,20,2,20,0.05
2012-3-6,55.6,38.3,21.7,26.4,19.8,14.4,80,50,28,30.66,30.45,17,2,17,0.00
2012-3-7,71.7,55.3,37.5,39.3,28.5,20.1,61,38,16,30.50,30.25,20,4,20,0.00
2012-3-8,70.8,60.4,47.9,49.0,43.6,37.1,67,55,39,30.26,29.93,22,5,22,0.00
2012-3-9,52.5,43.5,33.6,40.7,22.1,15.0,67,44,28,30.42,30.03,27,6,27,0.00
2012-3-10,52.2,37.3,27.4,22.4,15.4,9.5,68,43,19,30.59,30.41,14,2,17,0.00
2012-3-11,73.9,46.7,24.4,33.2,24.8,20.1,87,51,15,30.54,30.30,11,1,12,0.00
2012-3-12,74.6,53.6,35.5,54.5,37.9,23.7,96,62,16,30.34,30.09,14,0,16,0.04
2012-3-13,76.9,64.5,54.0,54.2,49.4,43.0,97,61,33,30.09,29.98,18,3,22,0.00
2012-3-14,81.8,61.8,45.8,52.0,43.0,35.1,91,57,19,30.20,30.07,10,1,10,0.00
2012-3-15,77.5,58.3,42.2,49.3,43.6,39.5,91,62,28,30.23,30.09,10,0,10,0.00
2012-3-16,73.0,59.0,49.4,54.4,49.2,44.7,88,71,46,30.18,30.09,7,0,7,0.00
2012-3-17,79.3,60.2,43.5,56.0,48.8,42.8,99,71,31,30.29,30.14,10,1,11,0.00
2012-3-18,69.8,57.7,51.0,59.0,53.5,47.5,99,87,61,30.29,30.16,13,1,17,0.47
2012-3-19,79.5,63.3,52.5,60.8,55.3,52.2,100,79,40,30.17,30.04,11,1,12,0.10
2012-3-20,73.9,59.9,49.8,59.8,54.8,49.3,100,85,55,30.26,30.13,10,0,11,0.00
2012-3-21,74.3,60.7,50.9,60.3,54.9,50.1,99,83,52,30.30,30.15,10,1,11,0.00
2012-3-22,85.3,65.8,54.0,60.7,54.7,46.4,99,74,27,30.23,30.00,6,0,7,0.00
2012-3-23,85.7,66.0,51.3,60.4,55.6,50.7,99,73,33,30.11,29.87,12,0,14,0.00
2012-3-24,69.6,61.8,57.6,61.1,57.5,51.8,100,87,57,29.90,29.79,9,0,10,0.40
2012-3-25,62.9,55.9,51.8,56.0,52.5,49.5,99,89,71,29.86,29.76,12,1,12,0.07
2012-3-26,57.9,51.7,38.6,55.5,31.5,15.2,98,48,27,30.26,29.86,21,5,21,0.00
2012-3-27,59.7,41.3,25.0,31.5,17.0,-3.5,75,42,12,30.40,30.13,8,1,12,0.00
2012-3-28,78.2,59.6,39.1,56.9,43.0,30.9,81,57,28,30.13,29.68,29,5,30,0.03
2012-3-29,65.4,57.0,45.4,40.3,35.6,30.8,64,46,30,30.03,29.72,22,5,22,0.00
2012-3-30,57.9,45.1,36.3,44.4,36.6,31.9,91,72,53,30.11,29.78,11,1,11,0.00
2012-3-31,68.1,56.2,43.8,59.6,48.5,41.3,100,78,46,29.86,29.71,19,3,19,0.26
2012-4-1,75.0,57.1,42.8,51.9,41.7,34.6,86,60,25,29.89,29.57,15,2,17,0.01
2012-4-2,65.8,54.2,43.5,52.8,34.9,23.5,85,52,21,29.99,29.58,19,4,19,0.02
2012-4-3,76.7,52.5,32.2,39.3,31.2,20.0,93,53,13,30.08,29.75,6,0,7,0.00
2012-4-4,75.7,60.2,48.8,53.4,42.6,21.0,79,55,27,29.80,29.61,19,2,19,0.00
2012-4-5,62.5,49.4,37.0,32.8,27.1,16.7,76,44,20,29.91,29.76,12,1,12,0.00
2012-4-6,60.6,46.5,35.0,30.1,23.4,14.4,79,45,17,30.16,29.90,21,2,21,0.00
2012-4-7,63.8,46.3,27.8,25.0,19.3,12.1,77,39,15,30.30,30.13,17,2,19,0.00
2012-4-8,68.3,50.6,31.8,33.5,27.8,21.6,82,46,23,30.15,29.88,29,4,29,0.00
2012-4-9,59.7,52.7,42.3,41.7,31.1,17.2,92,46,25,29.97,29.81,34,7,34,0.08
2012-4-10,60.5,46.8,34.5,40.2,28.2,17.6,98,55,20,29.93,29.74,29,5,30,0.01
2012-4-11,48.1,40.4,34.9,34.3,27.1,22.0,77,59,47,30.14,29.92,19,3,19,0.00
2012-4-12,56.5,45.3,31.9,34.0,29.9,26.3,87,57,34,30.24,30.13,16,2,17,0.00
2012-4-13,68.8,50.6,34.3,34.8,30.9,24.8,87,52,20,30.30,30.16,10,0,10,0.00
2012-4-14,73.2,55.2,35.5,48.4,36.7,28.9,90,56,21,30.26,30.04,7,0,8,0.00
2012-4-15,88.3,68.2,52.8,53.6,49.1,44.1,82,55,22,30.08,29.92,11,1,12,0.00
2012-4-16,92.8,75.6,53.2,56.8,50.5,39.8,89,47,16,30.02,29.83,24,4,24,0.00
2012-4-17,73.7,61.6,49.2,52.6,38.8,27.6,68,44,24,30.25,30.00,16,2,16,0.00
2012-4-18,51.5,48.7,46.6,49.5,45.9,38.1,99,90,69,30.29,30.12,3,0,4,0.31
2012-4-19,74.8,57.1,47.6,51.9,46.2,35.7,100,73,28,30.14,29.96,7,0,7,0.00
2012-4-20,79.7,59.4,40.3,54.3,45.9,39.2,99,66,29,30.01,29.74,16,1,16,0.00
2012-4-21,76.4,59.8,50.3,55.0,51.1,48.0,97,75,39,29.81,29.63,17,1,17,0.07
2012-4-22,50.3,46.8,42.1,49.5,42.3,40.2,97,85,73,29.81,29.57,12,2,13,0.07
2012-4-23,45.4,40.7,35.6,40.5,33.5,17.7,97,78,35,29.59,29.47,16,2,18,0.27
2012-4-24,57.3,47.8,37.9,28.0,20.9,12.8,62,36,23,29.73,29.53,24,4,25,0.00
2012-4-25,69.6,51.5,33.6,40.1,30.7,23.3,88,51,19,29.87,29.73,20,1,21,0.00
2012-4-26,73.9,59.9,48.8,57.4,48.4,38.5,84,67,44,29.83,29.57,20,2,21,0.00
2012-4-27,61.6,51.5,41.3,44.9,30.8,22.6,68,47,24,30.22,29.78,16,3,19,0.00
2012-4-28,58.6,45.4,35.6,41.8,34.0,24.7,95,67,34,30.31,30.10,11,1,14,0.20
2012-4-29,75.8,53.7,38.2,45.5,37.8,25.4,99,65,19,30.29,30.10,7,0,9,0.06
2012-4-30,77.8,58.5,41.6,57.9,45.3,32.9,86,64,38,30.28,29.98,12,1,12,0.00
2012-5-1,85.3,69.0,57.3,64.4,56.0,49.0,100,68,31,30.00,29.92,14,1,22,0.19
2012-5-2,87.0,70.1,61.0,66.7,61.8,55.9,99,78,44,30.08,29.96,13,1,16,0.26
2012-5-3,93.0,72.9,56.2,66.1,59.8,52.7,99,69,26,30.14,29.93,11,0,11,0.00
2012-5-4,79.7,68.1,61.1,66.2,61.3,57.7,97,80,50,30.09,29.88,11,0,11,0.24
2012-5-5,76.2,65.4,57.4,67.2,61.9,57.0,99,89,62,29.96,29.86,11,0,12,0.12
2012-5-6,81.2,69.2,62.9,66.0,63.1,59.7,100,83,53,30.02,29.92,8,0,8,0.00
2012-5-7,77.5,68.4,63.3,66.5,59.3,55.7,91,73,58,29.99,29.88,18,2,19,0.24
2012-5-8,70.3,66.3,64.0,65.4,60.0,54.8,99,81,68,29.90,29.74,18,2,20,0.08
2012-5-9,69.9,60.7,52.2,63.7,57.1,49.2,100,89,57,29.81,29.69,12,0,16,0.20
2012-5-10,64.8,54.6,46.1,50.5,41.7,33.7,92,64,35,30.00,29.70,18,2,19,0.00
2012-5-11,72.3,54.6,37.6,43.7,38.1,30.5,98,61,27,30.22,30.00,12,1,12,0.00
2012-5-12,79.7,59.4,40.6,51.4,43.4,37.4,95,61,25,30.34,30.16,7,0,7,0.00
2012-5-13,76.4,62.4,52.2,62.9,55.0,49.9,96,78,50,30.19,30.06,8,0,8,0.01
2012-5-14,63.8,59.2,56.5,63.2,58.7,55.7,100,98,88,30.09,29.96,7,0,7,0.93
2012-5-15,75.5,65.4,59.1,64.2,59.9,55.9,100,85,51,29.98,29.90,7,0,7,0.00
2012-5-16,81.8,66.9,53.1,59.9,54.0,46.0,100,69,30,29.97,29.84,11,1,11,0.00
2012-5-17,73.0,61.4,49.8,54.5,45.2,33.9,84,58,25,30.14,29.95,11,1,11,0.00
2012-5-18,78.8,59.7,42.2,52.5,44.5,39.2,97,63,25,30.21,30.07,10,0,11,0.00
2012-5-19,80.6,62.5,45.2,55.9,49.0,43.6,97,66,32,30.21,30.09,7,0,8,0.00
2012-5-20,84.1,67.0,50.1,59.6,51.5,44.5,98,63,27,30.20,30.06,14,1,14,0.00
2012-5-21,71.7,64.4,59.9,66.6,60.6,52.5,98,88,72,30.07,29.88,8,0,8,0.25
2012-5-22,80.2,67.5,62.9,63.6,61.7,58.1,99,83,52,29.89,29.77,10,0,13,0.03
2012-5-23,78.8,66.2,60.6,66.3,62.3,58.6,100,89,51,29.94,29.84,12,1,12,0.20
2012-5-24,80.8,67.5,61.7,66.0,63.3,60.2,100,88,53,30.04,29.93,18,0,21,0.08
2012-5-25,90.4,73.5,59.1,68.0,62.6,55.3,100,74,31,30.12,30.02,10,0,10,0.01
2012-5-26,91.5,75.8,61.9,73.1,65.5,60.8,98,73,40,30.14,30.02,10,0,10,0.00
2012-5-27,91.5,76.4,66.3,72.0,67.5,59.8,99,76,43,30.10,30.00,13,1,14,0.00
2012-5-28,94.1,79.1,65.1,68.6,63.8,58.4,90,63,35,30.12,29.87,16,1,17,0.00
2012-5-29,90.0,73.9,66.9,70.3,66.1,62.9,99,79,44,29.89,29.72,18,2,19,0.35
2012-5-30,83.9,70.7,58.0,66.6,58.3,46.5,99,70,31,29.84,29.71,12,1,12,0.05
2012-5-31,83.5,69.7,55.6,58.6,55.0,47.7,98,64,32,29.88,29.75,8,0,8,0.00
2012-6-1,77.8,65.6,58.3,66.7,59.3,51.0,97,81,60,29.84,29.58,21,1,22,0.22
2012-6-2,72.3,62.6,54.1,52.7,45.3,41.1,81,55,34,29.87,29.73,18,2,18,0.00
2012-6-3,77.6,63.3,47.3,52.8,47.1,41.7,91,60,30,29.88,29.72,18,1,18,0.00
2012-6-4,73.4,64.4,53.5,52.3,48.8,45.0,84,59,37,29.77,29.67,14,2,21,0.00
2012-6-5,67.8,59.2,54.7,53.2,51.3,48.0,89,76,52,29.95,29.77,12,1,13,0.01
2012-6-6,71.0,60.3,54.0,60.2,53.1,49.7,93,78,50,30.02,29.94,7,0,8,0.21
2012-6-7,79.1,62.3,48.1,55.4,50.9,41.3,99,71,31,30.06,29.96,12,1,14,0.01
2012-6-8,82.6,65.8,48.6,55.7,50.3,44.8,98,63,27,30.08,29.93,12,0,12,0.01
2012-6-9,89.5,71.3,52.3,57.0,51.1,44.7,92,55,22,30.02,29.94,14,1,14,0.00
2012-6-10,91.9,73.0,54.3,60.0,54.4,48.4,92,58,25,30.10,30.01,11,1,11,0.00
2012-6-11,77.5,69.0,58.2,66.2,61.5,56.6,96,78,57,30.10,29.98,12,0,12,0.03
2012-6-12,85.3,72.7,67.1,72.9,67.6,61.7,99,85,58,29.98,29.77,14,0,14,0.23
2012-6-13,80.2,68.9,56.2,62.8,50.8,32.8,99,60,20,30.09,29.89,13,2,13,0.01
2012-6-14,56.0,53.4,50.9,49.3,48.8,47.9,91,84,77,30.11,30.08,2,0,2,0.00
2012-6-17,73.8,71.5,69.8,57.4,56.3,55.5,63,59,54,29.99,29.96,11,2,11,0.00
2012-6-18,80.8,69.8,63.7,69.5,64.1,56.6,99,83,63,30.04,29.93,14,2,14,0.92
2012-6-19,93.3,76.7,65.3,70.1,65.9,62.0,99,74,36,30.11,30.03,6,0,6,0.00
2012-6-20,94.6,79.4,65.3,71.5,66.9,62.3,99,70,37,30.17,30.00,7,0,7,0.00
2012-6-21,91.7,76.0,66.9,71.9,68.2,64.1,98,80,43,30.03,29.87,17,0,17,0.03
2012-6-22,90.4,75.2,67.1,72.1,68.7,63.4,97,83,42,29.88,29.75,16,0,16,0.15
2012-6-23,86.0,72.9,61.3,65.7,58.7,47.4,99,67,27,30.01,29.88,11,0,13,0.01
2012-6-24,88.3,72.3,56.3,62.5,56.8,48.4,97,63,29,30.03,29.88,8,0,8,0.00
2012-6-25,81.2,69.5,59.7,65.2,53.8,42.6,92,62,30,29.89,29.76,17,2,17,0.00
2012-6-26,77.3,63.5,46.6,49.0,45.2,42.4,88,55,30,29.96,29.84,17,2,17,0.00
2012-6-27,86.0,68.1,48.1,55.0,49.4,45.4,95,57,27,30.00,29.87,12,1,16,0.00
2012-6-28,98.4,77.3,55.5,66.5,55.7,47.7,89,54,22,29.95,29.72,13,1,13,0.00
2012-6-29,104.1,90.6,74.8,70.7,64.8,57.9,72,45,24,29.78,29.64,16,2,16,0.00
2012-7-1,97.5,82.9,68.6,68.7,62.5,50.5,91,55,21,29.92,29.81,13,1,13,0.00
2012-7-2,92.2,77.7,63.8,68.1,62.1,53.8,99,64,29,30.00,29.90,15,1,16,0.04
2012-7-3,95.3,78.6,64.2,68.0,62.8,58.7,90,62,32,29.99,29.84,12,1,18,0.00
2012-7-4,99.4,82.8,67.8,71.0,63.9,58.1,85,58,27,29.94,29.80,13,1,13,0.01
2012-7-5,97.7,83.2,69.6,70.5,65.0,57.7,91,59,27,29.90,29.81,12,1,12,0.00
2012-7-6,100.2,84.7,71.1,69.1,65.1,59.4,80,55,27,29.94,29.85,12,1,13,0.00
2012-7-7,104.1,87.1,72.3,70.3,65.6,56.3,85,54,22,29.92,29.80,11,1,13,0.00
2012-7-8,101.0,84.3,72.5,71.7,67.4,62.7,83,60,29,29.88,29.78,17,1,17,0.00
2012-7-9,87.8,75.6,68.4,71.0,66.7,59.4,99,77,40,29.96,29.84,10,0,12,1.10
2012-7-10,88.5,74.8,62.5,65.6,59.7,48.2,99,66,27,30.03,29.95,10,0,10,0.00
2012-7-11,86.4,71.8,61.1,67.1,62.5,58.4,96,74,42,30.12,30.02,14,1,16,0.00
2012-7-12,87.4,73.4,60.6,64.5,60.2,53.6,99,68,34,30.18,30.11,12,0,13,0.00
2012-7-13,74.6,69.8,64.0,65.2,61.3,58.6,91,75,65,30.23,30.15,8,0,8,0.01
2012-7-14,87.8,73.2,63.2,71.1,65.5,61.3,98,79,53,30.20,30.05,10,0,10,0.02
2012-7-15,92.4,77.1,69.3,74.4,68.7,65.2,98,78,43,30.12,29.98,13,1,13,0.27
2012-7-16,93.7,78.6,66.4,73.7,66.8,60.2,99,72,34,30.03,29.85,13,1,13,0.01
2012-7-17,98.2,81.8,67.4,69.4,64.6,56.5,92,61,27,29.92,29.80,12,1,12,0.00
2012-7-18,95.1,78.7,69.6,72.4,68.2,65.6,98,73,39,29.95,29.82,17,1,18,0.20
2012-7-19,93.7,75.7,66.8,74.7,68.6,65.3,99,83,43,29.98,29.81,13,0,13,0.22
2012-7-20,80.2,72.3,67.9,72.3,69.7,67.5,99,92,69,29.93,29.83,9,0,10,1.41
2012-7-21,73.7,67.5,62.5,67.5,64.1,62.2,100,89,73,30.11,29.93,10,2,11,0.90
2012-7-22,89.5,76.3,65.1,69.2,65.3,61.1,96,72,39,30.14,30.05,6,0,7,0.00
2012-7-23,87.0,76.0,68.1,71.9,68.2,64.8,98,78,48,30.10,29.91,8,1,8,0.00
2012-7-24,87.4,77.6,70.6,75.8,69.7,66.5,98,77,57,29.91,29.74,27,1,27,0.64
2012-7-25,90.2,74.7,60.6,67.1,61.8,56.0,97,68,36,29.98,29.81,7,0,7,0.00
2012-7-26,96.1,79.1,66.4,73.3,67.5,61.4,98,72,35,29.83,29.63,21,2,30,0.18
2012-7-27,84.9,75.1,68.6,71.9,68.1,64.9,99,81,56,29.89,29.72,12,1,13,0.08
2012-7-28,87.0,76.3,67.4,68.6,63.9,58.2,96,69,39,29.97,29.86,13,1,14,0.00
2012-7-29,86.0,73.8,63.0,65.3,62.3,59.7,94,70,44,30.03,29.95,9,1,10,0.00
2012-7-30,88.9,72.9,60.3,68.3,63.0,58.8,98,74,42,30.07,29.93,8,0,11,0.00
2012-7-31,82.6,70.7,63.8,69.9,65.7,62.2,98,85,60,29.97,29.87,12,1,14,0.11
2012-8-1,87.4,72.3,63.0,73.1,65.3,61.8,98,81,49,29.91,29.78,12,1,12,0.68
2012-8-2,90.4,74.7,63.5,71.4,66.4,62.5,99,79,40,29.92,29.82,12,0,12,0.01
2012-8-3,90.2,76.0,65.8,76.9,68.2,64.2,98,79,46,30.03,29.89,19,0,19,0.28
2012-8-4,92.4,77.3,65.9,73.1,67.2,62.3,99,74,44,30.10,30.02,21,2,21,0.00
2012-8-5,87.4,78.0,71.0,74.2,69.8,66.2,96,77,55,30.08,29.98,14,2,14,0.06
2012-8-6,86.0,75.4,67.6,70.4,67.0,62.7,94,77,50,30.08,29.97,8,0,8,0.00
2012-8-7,88.3,74.1,62.9,69.5,65.2,62.0,99,77,44,30.03,29.90,5,0,6,0.00
2012-8-8,92.4,75.4,63.5,67.8,63.4,55.6,99,72,31,30.01,29.89,8,0,8,0.00
2012-8-9,91.3,74.9,65.0,70.8,64.7,58.6,95,73,36,29.96,29.79,12,1,12,0.02
2012-8-10,84.1,73.2,66.1,70.0,66.7,63.7,99,82,53,29.81,29.67,13,1,13,0.25
2012-8-11,84.9,71.6,61.1,66.1,59.3,51.6,99,70,33,29.94,29.76,12,1,12,0.01
2012-8-12,81.6,68.4,57.0,60.2,57.0,53.2,97,70,39,30.03,29.93,11,0,12,0.00
2012-8-13,87.0,69.8,55.6,64.5,58.7,54.1,99,72,34,30.08,29.90,9,0,10,0.03
2012-8-14,85.5,71.1,65.3,69.4,66.3,60.8,99,87,50,29.94,29.80,19,0,30,1.32
2012-8-15,76.4,68.0,63.5,69.7,65.5,62.6,99,93,66,29.97,29.85,8,0,10,0.36
2012-8-16,86.8,70.6,59.4,66.5,61.1,54.1,99,76,35,30.04,29.87,7,0,7,0.00
2012-8-17,84.1,68.6,58.9,68.2,62.6,58.3,99,83,48,29.92,29.79,14,1,14,0.04
2012-8-18,80.8,68.0,58.3,62.1,58.5,52.0,99,76,39,29.96,29.84,8,0,8,0.01
2012-8-19,74.1,65.3,60.6,65.2,61.0,58.5,99,87,64,29.97,29.85,8,0,11,0.09
2012-8-20,77.5,66.2,59.5,66.9,61.1,57.7,98,85,55,29.97,29.83,10,0,12,0.16
2012-8-21,84.3,67.2,55.2,61.8,56.9,45.7,99,75,27,30.11,29.97,12,0,14,0.00
2012-8-22,82.8,67.6,57.0,64.0,58.6,53.0,98,76,38,30.16,30.06,11,0,12,0.00
2012-8-23,86.4,68.4,56.5,65.1,60.3,54.6,99,78,38,30.19,30.07,11,0,11,0.00
2012-8-24,83.7,69.5,58.9,66.9,62.2,58.2,99,80,43,30.19,30.09,9,0,9,0.00
2012-8-25,79.1,69.7,63.5,67.0,61.4,54.4,98,77,49,30.20,30.13,12,1,12,0.00
2012-8-26,81.4,70.3,63.8,68.3,64.9,58.7,99,84,53,30.18,30.08,9,1,9,0.17
2012-8-27,91.7,74.4,63.5,68.6,64.2,55.3,99,75,31,30.14,29.92,9,0,11,0.00
2012-8-28,86.2,74.9,63.5,68.1,62.5,53.9,94,69,35,29.98,29.89,11,1,12,0.02
2012-8-29,84.7,68.9,56.3,62.3,58.1,52.6,98,73,35,30.04,29.93,7,0,7,0.00
2012-8-30,86.6,69.7,55.3,65.8,59.2,53.9,98,74,35,30.13,30.02,6,0,7,0.00
2012-8-31,92.4,74.7,59.2,68.4,62.9,57.9,99,72,35,30.15,30.00,17,1,17,0.00
2012-9-1,87.0,75.0,68.3,74.6,70.1,65.2,98,85,57,30.11,29.99,11,0,11,0.07
2012-9-2,84.3,74.1,70.3,72.8,70.7,68.9,99,90,65,30.04,29.90,7,0,7,0.04
2012-9-3,83.3,75.1,69.6,71.6,69.5,67.9,99,84,63,30.00,29.92,12,1,12,0.00
2012-9-4,87.0,76.2,68.6,71.0,68.5,66.2,98,79,53,29.96,29.80,16,1,17,0.00
2012-9-5,91.1,79.0,71.7,70.5,67.8,62.9,92,71,42,29.84,29.74,7,0,7,0.00
2012-9-6,91.7,77.2,68.6,69.9,66.7,60.0,94,73,36,29.89,29.81,7,0,8,0.00
2012-9-7,92.8,76.5,63.8,67.5,64.2,54.4,98,71,29,29.95,29.75,12,1,12,0.00
2012-9-8,80.6,68.2,55.5,70.0,62.6,53.1,94,83,60,29.87,29.63,26,1,27,0.42
2012-9-9,75.3,61.3,50.4,56.0,50.6,42.8,98,72,33,30.00,29.87,16,1,16,0.01
2012-9-10,73.6,59.3,47.9,53.7,46.7,37.1,98,69,29,30.21,30.00,14,1,16,0.00
2012-9-11,81.4,59.5,42.5,51.3,45.5,37.1,98,67,25,30.35,30.20,7,0,8,0.00
2012-9-12,85.3,63.4,46.6,56.5,51.4,45.5,98,70,33,30.37,30.23,11,0,11,0.00
2012-9-13,86.0,65.6,51.3,60.9,53.2,46.1,98,70,28,30.38,30.20,8,0,8,0.01
2012-9-14,87.4,66.2,50.9,56.9,52.3,49.0,95,66,28,30.26,30.07,10,0,11,0.00
2012-9-15,76.0,63.7,50.3,58.1,47.6,41.2,88,59,29,30.28,30.12,16,2,16,0.00
2012-9-16,76.0,58.3,46.6,54.2,49.5,45.0,96,75,43,30.21,30.04,6,0,6,0.00
2012-9-17,79.3,61.8,48.6,61.9,55.0,47.2,99,81,49,30.12,29.89,13,1,16,0.10
2012-9-18,69.8,64.2,57.7,69.2,62.9,48.2,99,96,69,29.89,29.57,11,0,16,1.39
2012-9-19,68.1,56.2,45.4,50.8,43.4,33.3,97,68,29,30.18,29.89,11,1,11,0.01
2012-9-20,78.6,57.1,41.1,56.8,48.5,39.8,99,77,40,30.19,29.98,10,1,11,0.00
2012-9-21,82.4,65.3,50.7,61.9,55.4,49.6,99,74,34,30.04,29.87,13,0,14,0.01
2012-9-22,78.2,68.2,57.3,60.1,53.9,41.4,85,62,34,30.02,29.77,17,2,19,0.00
2012-9-23,66.9,54.4,41.5,44.2,38.9,32.4,88,58,31,30.18,30.01,11,1,14,0.00
2012-9-24,69.3,52.4,39.5,42.8,38.8,31.4,95,66,26,30.27,30.11,7,1,16,0.00
2012-9-25,72.7,54.0,36.6,52.5,44.3,35.0,98,74,38,30.21,30.05,13,1,13,0.01
2012-9-26,82.0,65.8,55.3,60.9,56.6,51.7,97,76,39,30.14,30.03,13,2,16,0.19
2012-9-27,79.3,67.1,60.5,63.5,60.9,58.9,98,83,52,30.15,30.03,13,0,13,0.30
2012-9-28,70.3,63.4,55.6,65.2,58.1,50.2,99,84,58,30.06,29.99,8,1,9,0.21
2012-9-29,66.8,54.8,47.3,52.6,46.9,41.8,99,78,42,30.07,29.92,11,1,11,0.01
2012-9-30,70.3,53.9,43.8,51.7,46.8,40.3,98,80,35,29.95,29.78,17,1,17,0.01
2012-10-1,66.3,53.0,44.4,55.7,49.6,43.9,99,89,59,29.99,29.89,8,0,10,0.03
2012-10-2,64.0,59.5,56.2,60.2,58.0,55.4,99,95,85,29.94,29.87,3,0,4,0.22
2012-10-3,81.2,64.2,60.5,65.9,61.3,59.7,99,92,52,30.08,29.94,6,0,6,0.00
2012-10-5,61.2,58.9,57.7,56.6,55.9,55.1,92,90,84,29.97,29.92,2,0,2,0.00
2012-10-6,63.3,55.3,42.6,59.5,48.0,38.5,99,78,46,30.11,29.82,16,1,16,0.01
2012-10-7,50.6,45.5,40.1,46.9,41.9,37.4,95,87,73,30.21,30.05,11,0,12,0.02
2012-10-8,43.6,40.5,36.8,41.1,38.7,35.0,96,93,85,30.33,30.21,3,0,3,0.26
2012-10-9,61.3,47.8,38.8,48.3,42.6,37.8,98,84,56,30.26,30.04,4,0,5,0.00
2012-10-10,65.3,50.9,41.8,52.8,42.7,33.4,99,77,46,30.13,29.90,18,2,20,0.00
2012-10-11,66.4,48.4,34.5,40.1,32.5,26.8,90,58,27,30.32,30.13,12,1,13,0.00
2012-10-12,59.9,44.0,33.3,46.5,36.4,31.7,99,77,45,30.45,30.17,24,1,24,0.01
2012-10-13,66.3,45.3,29.4,45.1,35.3,28.1,98,73,35,30.53,30.19,13,1,16,0.01
2012-10-14,79.5,62.1,51.8,55.3,47.6,40.2,75,60,39,30.20,29.85,13,2,16,0.00
2012-10-15,70.1,63.2,51.9,57.0,50.0,39.4,78,63,37,29.86,29.67,18,3,20,0.00
2012-10-16,63.8,53.5,40.3,42.1,39.0,35.9,88,59,36,29.95,29.85,14,2,16,0.00
2012-10-17,73.2,51.0,33.4,43.8,38.2,32.1,98,68,26,30.02,29.83,11,1,11,0.00
2012-10-18,65.9,54.7,40.5,54.6,46.8,38.2,96,76,55,29.86,29.73,18,2,18,0.24
2012-10-19,71.8,56.9,49.2,53.8,46.0,31.1,99,73,26,29.82,29.58,13,1,13,0.00
2012-10-20,58.8,50.1,41.3,43.3,38.2,33.1,90,66,39,29.96,29.70,14,2,16,0.00
2012-10-21,62.4,47.8,37.2,44.0,37.2,34.9,96,71,36,30.17,29.96,14,1,14,0.00
2012-10-22,78.6,52.1,32.7,47.8,40.2,31.4,98,70,29,30.26,30.08,5,0,6,0.00
2012-10-23,83.9,61.9,47.3,56.4,49.5,45.1,93,68,32,30.14,29.99,10,0,12,0.00
2012-10-24,81.6,62.5,52.3,56.0,50.2,47.1,91,69,31,30.15,30.03,10,0,10,0.00
2012-10-25,83.3,62.6,47.2,55.2,50.1,45.7,96,69,28,30.18,30.03,14,1,14,0.00
2012-10-26,76.0,59.6,51.3,59.1,53.8,49.6,99,83,49,30.16,29.97,13,1,13,0.00
2012-10-27,59.4,55.6,52.2,55.4,52.4,49.6,94,89,78,30.02,29.89,7,0,8,0.01
2012-10-28,55.7,52.4,48.1,52.3,49.7,46.7,96,91,82,29.90,29.72,14,2,15,0.16
2012-10-29,48.1,42.6,37.3,47.0,40.8,35.1,96,93,86,29.72,29.05,39,3,39,2.10
2012-10-30,40.2,38.0,35.6,35.7,32.8,30.0,93,82,67,29.45,28.98,29,4,29,0.34
2012-10-31,48.4,43.5,40.2,34.3,31.2,29.7,68,62,53,29.68,29.45,17,4,18,0.00
2012-11-1,48.4,43.6,40.1,33.6,31.7,26.9,76,63,52,29.77,29.67,16,2,17,0.00
2012-11-2,46.7,42.7,38.3,29.9,28.0,25.8,69,56,48,29.99,29.75,19,4,24,0.00
2012-11-3,43.2,40.0,35.6,30.5,28.1,25.8,77,62,54,30.12,29.99,18,4,18,0.00
2012-11-4,47.8,38.6,31.7,33.5,28.9,24.9,87,69,45,30.13,30.04,13,1,13,0.00
2012-11-5,46.1,34.3,25.4,30.5,25.7,21.7,91,73,48,30.21,30.10,11,1,11,0.00
2012-11-6,50.0,33.3,21.4,29.6,24.8,19.4,93,74,41,30.21,30.01,10,0,10,0.00
2012-11-7,41.6,33.0,28.7,27.4,26.1,24.8,90,77,53,30.03,29.94,5,0,5,0.00
2012-11-8,49.2,36.5,25.9,29.7,23.3,13.1,92,64,25,30.17,30.01,16,2,17,0.00
2012-11-9,61.0,39.6,25.7,35.3,29.3,22.9,91,70,33,30.28,30.16,6,0,6,0.00
2012-11-10,74.1,46.0,28.1,35.9,30.7,25.0,94,63,22,30.36,30.20,8,0,8,0.00
2012-11-11,72.2,51.6,30.9,41.2,34.8,28.9,94,59,25,30.46,30.28,13,1,13,0.00
2012-11-12,70.8,58.7,45.1,55.0,48.0,38.8,91,69,51,30.31,30.06,22,3,28,0.12
2012-11-13,45.4,39.3,33.1,40.2,27.5,22.8,83,63,42,30.53,30.24,13,2,14,0.03
2012-11-14,42.2,31.4,24.3,26.9,24.1,21.2,90,75,52,30.61,30.46,6,0,7,0.00
2012-11-15,26.0,25.5,25.1,23.6,23.3,22.9,92,91,89,30.47,30.42,1,0,1,0.00
2012-11-17,38.6,31.9,27.2,27.5,25.6,23.5,87,78,64,30.64,30.59,2,0,2,0.00
2012-11-18,54.0,35.3,23.1,33.2,26.9,21.1,94,75,37,30.67,30.50,7,0,8,0.00
2012-11-19,52.6,37.2,27.7,36.6,31.4,25.4,93,81,53,30.53,30.24,6,0,6,0.00
2012-11-20,48.6,36.5,27.8,37.7,32.1,26.6,97,85,62,30.26,30.09,4,0,4,0.00
2012-11-21,58.9,37.1,25.0,37.7,27.9,21.5,97,75,26,30.28,30.16,8,0,8,0.01
2012-11-22,62.5,38.5,23.4,33.7,26.8,21.4,94,69,25,30.33,30.11,3,0,3,0.00
2012-11-23,65.9,41.9,25.4,42.9,30.1,21.0,93,66,35,30.12,29.77,27,4,31,0.00
2012-11-24,38.2,33.2,30.8,22.5,18.3,14.7,65,54,42,30.11,29.96,22,6,24,0.00
2012-11-25,51.5,37.4,29.0,21.8,17.6,12.4,62,46,22,30.10,29.88,12,1,13,0.00
2012-11-26,57.9,43.9,30.0,29.0,24.2,20.0,77,48,24,30.19,29.98,14,1,18,0.00
2012-11-27,41.1,37.5,34.5,35.8,33.1,27.9,96,84,59,30.29,30.15,10,1,10,0.14
2012-11-28,43.6,34.4,25.0,30.6,24.2,19.9,92,68,40,30.41,30.26,17,2,18,0.00
2012-11-29,51.5,31.9,21.9,28.5,21.5,17.9,92,70,27,30.49,30.32,8,0,8,0.00
2012-11-30,53.7,34.1,22.2,31.3,25.9,20.0,92,74,37,30.40,30.25,5,0,5,0.00
2012-12-1,55.5,36.9,24.8,35.1,29.5,23.1,96,77,42,30.47,30.30,6,0,6,0.00
2012-12-2,57.6,43.7,28.1,49.3,37.8,26.3,95,81,60,30.38,30.11,6,0,6,0.01
2012-12-3,68.3,54.2,47.2,56.1,49.5,45.3,95,85,60,30.25,30.16,11,0,11,0.02
2012-12-4,72.9,55.7,37.9,55.4,46.0,37.4,99,74,37,30.24,29.97,19,2,24,0.01
2012-12-5,65.1,46.7,31.1,52.2,32.3,22.8,75,58,36,30.34,29.98,22,4,24,0.00
2012-12-6,45.8,32.1,20.6,29.1,24.9,18.1,92,76,49,30.40,30.15,5,0,5,0.00
2012-12-7,41.8,36.8,33.3,35.1,32.2,26.9,92,83,73,30.17,29.96,6,0,6,0.04
2012-12-8,57.9,45.7,35.0,52.1,42.1,33.1,98,88,66,30.04,29.87,7,0,7,0.12
2012-12-9,51.9,47.4,45.0,51.4,47.1,44.5,99,99,98,30.15,29.88,6,0,6,0.40
2012-12-10,56.0,47.8,41.1,56.0,46.2,33.7,100,95,69,29.92,29.56,19,1,19,0.06
2012-12-11,42.2,36.5,27.2,37.1,28.4,23.5,88,73,55,30.28,29.76,16,2,16,0.00
2012-12-12,37.8,29.4,24.4,28.2,24.8,21.5,95,84,58,30.47,30.26,3,0,3,0.00
2012-12-13,45.1,28.3,18.4,29.7,22.5,16.7,95,81,43,30.54,30.34,5,0,5,0.00
2012-12-14,58.9,32.8,18.9,32.4,22.2,16.6,95,72,20,30.37,30.22,7,0,7,0.01
2012-12-15,45.5,35.6,25.3,36.1,28.1,23.1,93,76,49,30.31,30.02,5,0,5,0.01
2012-12-16,45.5,40.8,35.5,39.6,37.0,33.1,93,86,78,30.04,29.81,6,0,7,0.00
2012-12-17,46.7,41.0,33.7,43.3,39.4,32.9,99,94,85,29.86,29.55,8,0,8,0.23
2012-12-18,48.1,41.0,32.7,43.3,35.2,27.9,99,81,59,29.84,29.55,24,3,24,0.03
2012-12-19,52.6,41.5,31.4,35.5,31.8,28.1,90,70,48,30.18,29.82,22,3,22,0.00
2012-12-20,43.2,36.6,29.0,38.6,33.7,27.2,97,89,65,30.18,29.40,21,2,26,0.42
2012-12-21,38.8,34.7,32.5,38.1,23.6,19.1,98,64,56,29.72,29.40,27,7,29,0.01
2012-12-22,36.5,31.2,22.6,24.3,19.2,16.7,80,61,48,30.09,29.69,28,6,28,0.00
2012-12-23,54.1,33.6,17.6,24.5,19.7,14.4,89,62,26,30.09,29.87,12,1,14,0.00
2012-12-24,31.4,29.2,23.4,30.6,26.7,20.6,97,91,74,30.05,29.91,6,0,6,0.01
2012-12-25,42.3,34.7,28.5,37.8,30.5,28.0,98,86,63,30.23,29.93,12,1,12,0.16
2012-12-26,35.6,29.1,26.0,29.4,26.8,24.1,96,91,75,30.22,29.59,12,2,12,0.00
2012-12-27,34.6,31.8,24.8,29.0,23.7,20.6,98,72,61,30.11,29.59,26,5,27,0.08
2012-12-28,40.2,32.4,26.0,26.6,23.7,21.3,84,70,52,30.18,29.97,10,0,11,0.41
2012-12-29,39.8,32.3,28.0,33.1,27.0,24.9,95,81,62,30.01,29.63,19,2,24,0.09
2012-12-30,33.9,28.6,17.0,25.7,18.7,13.1,85,67,50,30.37,29.92,26,3,26,0.02
2012-12-31,45.7,28.9,13.3,26.3,17.4,10.8,91,66,28,30.36,30.01,17,1,17,0.01
2013-1-1,42.3,37.9,34.3,29.9,27.0,21.8,76,65,48,30.03,29.92,14,2,14,0.00